createdAt,value
2022-08-02T00:00:40.736Z,9.02
2022-08-02T00:01:27.552Z,8.00
2022-08-02T00:02:14.311Z,7.20
2022-08-02T00:03:01.172Z,9.80
2022-08-02T00:03:47.962Z,11.48
2022-08-02T00:04:34.818Z,8.55
2022-08-02T00:05:21.620Z,7.95
2022-08-02T00:06:08.567Z,7.90
2022-08-02T00:06:55.364Z,8.05
2022-08-02T00:07:42.250Z,7.57
2022-08-02T00:08:29.024Z,7.80
2022-08-02T00:09:15.951Z,9.70
2022-08-02T00:10:03.839Z,8.30
2022-08-02T00:10:50.619Z,7.60
2022-08-02T00:11:37.539Z,7.90
2022-08-02T00:12:24.590Z,8.48
2022-08-02T00:13:11.520Z,9.05
2022-08-02T00:13:58.551Z,8.35
2022-08-02T00:14:45.908Z,8.02
2022-08-02T00:15:32.729Z,8.00
2022-08-02T00:16:19.649Z,8.32
2022-08-02T00:17:24.249Z,7.78
2022-08-02T00:18:11.070Z,8.48
2022-08-02T00:18:57.850Z,7.62
2022-08-02T00:19:44.919Z,7.75
2022-08-02T00:20:31.710Z,8.02
2022-08-02T00:21:18.539Z,8.20
2022-08-02T00:22:05.859Z,7.62
2022-08-02T00:22:52.806Z,7.65
2022-08-02T00:24:27.946Z,8.50
2022-08-02T00:24:46.298Z,8.63
2022-08-02T00:25:33.175Z,9.88
2022-08-02T00:26:20.021Z,7.57
2022-08-02T00:27:09.536Z,7.70
2022-08-02T00:27:56.603Z,7.50
2022-08-02T00:28:43.334Z,8.05
2022-08-02T00:29:31.241Z,8.98
2022-08-02T00:30:17.970Z,9.27
2022-08-02T00:31:04.799Z,7.97
2022-08-02T00:31:51.642Z,7.97
2022-08-02T00:32:38.403Z,7.65
2022-08-02T00:34:26.304Z,7.85
2022-08-02T00:34:36.219Z,7.80
2022-08-02T00:35:24.809Z,8.07
2022-08-02T00:36:11.599Z,9.48
2022-08-02T00:36:58.841Z,8.63
2022-08-02T00:37:45.637Z,8.02
2022-08-02T00:38:32.559Z,7.90
2022-08-02T00:39:35.300Z,7.80
2022-08-02T00:40:23.849Z,8.02
2022-08-02T00:41:19.779Z,7.90
2022-08-02T00:42:06.850Z,7.72
2022-08-02T00:43:06.818Z,8.35
2022-08-02T00:43:53.701Z,8.02
2022-08-02T00:44:40.568Z,8.40
2022-08-02T00:46:02.570Z,9.00
2022-08-02T00:46:34.144Z,8.10
2022-08-02T00:47:20.919Z,7.93
2022-08-02T00:48:09.369Z,9.32
2022-08-02T00:48:56.426Z,8.15
2022-08-02T00:49:43.901Z,10.20
2022-08-02T00:50:31.017Z,7.50
2022-08-02T00:51:17.926Z,8.93
2022-08-02T00:52:05.511Z,8.02
2022-08-02T00:52:52.287Z,8.10
2022-08-02T00:53:39.440Z,9.27
2022-08-02T00:54:26.889Z,8.98
2022-08-02T00:55:13.658Z,8.18
2022-08-02T00:56:04.559Z,7.40
2022-08-02T00:56:51.357Z,7.90
2022-08-02T00:57:38.149Z,8.25
2022-08-02T00:58:24.927Z,8.07
2022-08-02T00:59:11.728Z,8.20
2022-08-02T01:00:01.251Z,8.43
2022-08-02T01:00:48.381Z,8.43
2022-08-02T01:01:56.000Z,7.90
2022-08-02T01:02:44.717Z,7.85
2022-08-02T01:03:31.629Z,8.65
2022-08-02T01:04:18.420Z,7.82
2022-08-02T01:05:19.208Z,8.77
2022-08-02T01:06:13.393Z,9.07
2022-08-02T01:07:01.325Z,8.82
2022-08-02T01:07:48.170Z,8.50
2022-08-02T01:08:35.019Z,8.88
2022-08-02T01:09:21.849Z,9.60
2022-08-02T01:10:09.378Z,8.45
2022-08-02T01:10:56.289Z,8.50
2022-08-02T01:11:43.083Z,8.85
2022-08-02T01:12:29.829Z,7.93
2022-08-02T01:13:16.946Z,8.35
2022-08-02T01:14:08.889Z,11.00
2022-08-02T01:15:03.087Z,8.43
2022-08-02T01:16:05.038Z,8.77
2022-08-02T01:17:11.787Z,8.52
2022-08-02T01:18:10.140Z,8.52
2022-08-02T01:19:01.967Z,8.15
2022-08-02T01:20:11.758Z,7.90
2022-08-02T01:21:33.866Z,8.18
2022-08-02T01:22:34.697Z,8.05
2022-08-02T01:23:46.151Z,8.60
2022-08-02T01:25:00.708Z,9.07
2022-08-02T01:25:49.889Z,8.20
2022-08-02T01:26:49.418Z,8.65
2022-08-02T01:28:00.408Z,8.85
2022-08-02T01:28:54.972Z,8.88
2022-08-02T01:29:45.940Z,8.52
2022-08-02T01:30:34.289Z,9.05
2022-08-02T01:31:36.349Z,9.23
2022-08-02T01:32:33.790Z,8.23
2022-08-02T01:33:21.518Z,8.82
2022-08-02T01:34:46.308Z,9.05
2022-08-02T01:35:51.079Z,8.05
2022-08-02T01:36:44.648Z,9.02
2022-08-02T01:38:04.000Z,7.90
2022-08-02T01:38:53.835Z,8.05
2022-08-02T01:39:42.947Z,8.13
2022-08-02T01:40:32.166Z,8.90
2022-08-02T01:41:20.619Z,8.82
2022-08-02T01:42:08.402Z,8.00
2022-08-02T01:42:57.909Z,9.88
2022-08-02T01:43:45.908Z,8.57
2022-08-02T01:44:35.758Z,8.75
2022-08-02T01:45:25.419Z,8.20
2022-08-02T01:46:14.499Z,9.60
2022-08-02T01:47:04.600Z,9.10
2022-08-02T01:47:52.300Z,8.40
2022-08-02T01:48:41.420Z,9.20
2022-08-02T01:49:30.554Z,8.60
2022-08-02T01:50:20.959Z,7.90
2022-08-02T01:51:08.870Z,7.90
2022-08-02T01:52:16.177Z,8.27
2022-08-02T01:53:06.917Z,8.65
2022-08-02T01:53:53.926Z,8.18
2022-08-02T01:54:41.628Z,8.07
2022-08-02T01:55:33.516Z,8.40
2022-08-02T01:56:39.568Z,8.90
2022-08-02T01:57:28.266Z,8.65
2022-08-02T01:58:18.147Z,7.90
2022-08-02T01:59:05.818Z,9.50
2022-08-02T01:59:54.581Z,8.25
2022-08-02T02:00:42.415Z,8.63
2022-08-02T02:01:31.293Z,9.02
2022-08-02T02:02:19.068Z,8.68
2022-08-02T02:03:11.389Z,8.95
2022-08-02T02:04:01.269Z,10.27
2022-08-02T02:04:49.366Z,10.95
2022-08-02T02:05:37.176Z,10.45
2022-08-02T02:06:24.549Z,8.85
2022-08-02T02:07:13.936Z,8.75
2022-08-02T02:08:02.169Z,8.75
2022-08-02T02:08:50.548Z,8.60
2022-08-02T02:09:50.306Z,8.77
2022-08-02T02:10:39.495Z,8.65
2022-08-02T02:12:05.226Z,10.02
2022-08-02T02:12:35.479Z,8.77
2022-08-02T02:13:33.344Z,8.63
2022-08-02T02:14:21.440Z,10.15
2022-08-02T02:15:10.928Z,9.23
2022-08-02T02:16:00.347Z,8.90
2022-08-02T02:16:48.759Z,9.50
2022-08-02T02:17:52.843Z,10.15
2022-08-02T02:18:44.687Z,10.90
2022-08-02T02:19:34.348Z,9.73
2022-08-02T02:20:21.468Z,9.02
2022-08-02T02:21:08.369Z,10.60
2022-08-02T02:21:55.699Z,10.30
2022-08-02T02:22:44.702Z,10.13
2022-08-02T02:23:34.084Z,9.45
2022-08-02T02:24:22.479Z,8.85
2022-08-02T02:25:11.296Z,11.70
2022-08-02T02:25:58.868Z,9.73
2022-08-02T02:26:52.481Z,10.82
2022-08-02T02:27:45.147Z,9.20
2022-08-02T02:28:33.367Z,8.73
2022-08-02T02:29:26.186Z,8.63
2022-08-02T02:30:13.438Z,8.98
2022-08-02T02:31:26.500Z,9.00
2022-08-02T02:32:14.998Z,9.15
2022-08-02T02:33:03.628Z,8.88
2022-08-02T02:33:53.398Z,8.88
2022-08-02T02:34:43.728Z,8.98
2022-08-02T02:35:33.028Z,9.43
2022-08-02T02:36:21.489Z,9.02
2022-08-02T02:37:17.028Z,9.18
2022-08-02T02:38:06.294Z,9.48
2022-08-02T02:38:53.348Z,9.25
2022-08-02T02:39:41.818Z,9.90
2022-08-02T02:40:29.449Z,9.20
2022-08-02T02:41:16.768Z,9.55
2022-08-02T02:42:08.617Z,9.15
2022-08-02T02:42:57.168Z,10.75
2022-08-02T02:43:44.548Z,10.15
2022-08-02T02:44:31.889Z,9.40
2022-08-02T02:45:20.979Z,10.43
2022-08-02T02:46:08.787Z,10.25
2022-08-02T02:46:55.959Z,8.93
2022-08-02T02:47:43.228Z,9.00
2022-08-02T02:48:30.259Z,9.45
2022-08-02T02:49:18.543Z,9.68
2022-08-02T02:50:05.808Z,8.98
2022-08-02T02:50:53.659Z,9.23
2022-08-02T02:51:41.149Z,8.88
2022-08-02T02:52:28.672Z,9.13
2022-08-02T02:53:17.376Z,8.90
2022-08-02T02:54:33.296Z,9.43
2022-08-02T02:55:11.529Z,9.25
2022-08-02T02:56:02.254Z,9.60
2022-08-02T02:56:50.000Z,9.60
2022-08-02T02:57:38.186Z,9.63
2022-08-02T02:58:29.009Z,9.45
2022-08-02T02:59:16.898Z,9.43
2022-08-02T03:00:10.945Z,9.52
2022-08-02T03:01:16.930Z,9.63
2022-08-02T03:02:04.978Z,10.82
2022-08-02T03:02:53.348Z,11.15
2022-08-02T03:03:40.508Z,9.05
2022-08-02T03:04:54.660Z,9.40
2022-08-02T03:05:35.509Z,9.35
2022-08-02T03:06:22.287Z,9.38
2022-08-02T03:07:10.018Z,9.45
2022-08-02T03:07:56.769Z,9.57
2022-08-02T03:08:43.822Z,8.82
2022-08-02T03:09:30.608Z,9.68
2022-08-02T03:10:17.439Z,8.95
2022-08-02T03:11:04.486Z,11.73
2022-08-02T03:11:53.799Z,11.23
2022-08-02T03:12:40.508Z,10.05
2022-08-02T03:13:30.981Z,9.73
2022-08-02T03:14:20.214Z,9.30
2022-08-02T03:15:08.476Z,9.95
2022-08-02T03:15:55.287Z,10.48
2022-08-02T03:16:43.919Z,9.93
2022-08-02T03:17:42.432Z,9.05
2022-08-02T03:18:39.768Z,9.40
2022-08-02T03:19:33.236Z,9.65
2022-08-02T03:20:20.879Z,9.55
2022-08-02T03:21:10.199Z,9.55
2022-08-02T03:21:57.968Z,8.95
2022-08-02T03:22:45.591Z,9.38
2022-08-02T03:23:33.317Z,9.30
2022-08-02T03:24:27.656Z,8.82
2022-08-02T03:25:15.864Z,10.88
2022-08-02T03:26:03.198Z,9.82
2022-08-02T03:26:49.967Z,9.02
2022-08-02T03:27:36.851Z,9.07
2022-08-02T03:28:23.928Z,9.35
2022-08-02T03:29:11.196Z,9.65
2022-08-02T03:29:58.118Z,9.43
2022-08-02T03:30:44.948Z,9.32
2022-08-02T03:31:32.686Z,8.60
2022-08-02T03:32:19.998Z,8.10
2022-08-02T03:33:06.969Z,9.13
2022-08-02T03:33:55.419Z,9.10
2022-08-02T03:34:42.190Z,8.55
2022-08-02T03:35:29.077Z,9.15
2022-08-02T03:36:17.268Z,9.55
2022-08-02T03:37:04.238Z,9.70
2022-08-02T03:37:53.088Z,9.63
2022-08-02T03:38:40.848Z,9.65
2022-08-02T03:39:27.928Z,9.23
2022-08-02T03:40:14.839Z,9.48
2022-08-02T03:41:03.670Z,9.32
2022-08-02T03:41:50.608Z,9.50
2022-08-02T03:42:38.450Z,9.25
2022-08-02T03:43:28.789Z,8.90
2022-08-02T03:45:08.516Z,8.45
2022-08-02T03:45:56.248Z,9.77
2022-08-02T03:46:43.651Z,8.93
2022-08-02T03:47:31.239Z,9.90
2022-08-02T03:48:33.953Z,9.18
2022-08-02T03:49:21.468Z,8.65
2022-08-02T03:50:12.459Z,9.25
2022-08-02T03:50:59.228Z,8.65
2022-08-02T03:51:46.868Z,9.20
2022-08-02T03:52:33.839Z,10.38
2022-08-02T03:53:21.260Z,8.40
2022-08-02T03:54:08.198Z,9.40
2022-08-02T03:54:54.968Z,8.88
2022-08-02T03:55:41.907Z,9.82
2022-08-02T03:56:29.319Z,8.98
2022-08-02T03:57:16.637Z,8.55
2022-08-02T03:58:03.620Z,9.30
2022-08-02T03:58:50.533Z,10.65
2022-08-02T03:59:44.968Z,8.57
2022-08-02T04:00:32.298Z,9.05
2022-08-02T04:01:19.205Z,9.48
2022-08-02T04:02:06.038Z,9.30
2022-08-02T04:02:53.007Z,8.95
2022-08-02T04:03:39.857Z,10.93
2022-08-02T04:04:26.618Z,8.85
2022-08-02T04:05:13.626Z,9.20
2022-08-02T04:06:04.161Z,9.32
2022-08-02T04:06:51.609Z,8.73
2022-08-02T04:08:33.919Z,10.32
2022-08-02T04:08:46.199Z,9.40
2022-08-02T04:09:33.078Z,8.32
2022-08-02T04:10:19.849Z,10.05
2022-08-02T04:11:25.639Z,8.82
2022-08-02T04:12:12.784Z,8.55
2022-08-02T04:12:59.882Z,8.50
2022-08-02T04:13:46.768Z,8.30
2022-08-02T04:14:36.874Z,10.32
2022-08-02T04:15:24.275Z,8.88
2022-08-02T04:16:13.066Z,9.23
2022-08-02T04:17:03.391Z,9.02
2022-08-02T04:17:56.678Z,8.55
2022-08-02T04:19:02.258Z,8.65
2022-08-02T04:19:51.000Z,9.95
2022-08-02T04:20:38.919Z,9.10
2022-08-02T04:21:50.489Z,8.55
2022-08-02T04:22:55.379Z,8.75
2022-08-02T04:23:43.157Z,8.50
2022-08-02T04:24:33.578Z,9.48
2022-08-02T04:25:21.468Z,7.57
2022-08-02T04:26:26.908Z,7.87
2022-08-02T04:27:49.991Z,7.37
2022-08-02T04:28:27.493Z,7.47
2022-08-02T04:29:15.400Z,7.75
2022-08-02T04:30:02.339Z,7.32
2022-08-02T04:30:50.450Z,6.72
2022-08-02T04:31:37.319Z,6.60
2022-08-02T04:32:24.721Z,7.32
2022-08-02T04:33:12.169Z,8.82
2022-08-02T04:33:59.419Z,11.80
2022-08-02T04:35:11.195Z,7.97
2022-08-02T04:35:57.838Z,7.62
2022-08-02T04:36:47.340Z,7.55
2022-08-02T04:37:35.036Z,6.53
2022-08-02T04:38:21.900Z,6.85
2022-08-02T04:39:08.762Z,7.45
2022-08-02T04:39:55.599Z,6.87
2022-08-02T04:40:51.535Z,6.55
2022-08-02T04:41:43.857Z,7.18
2022-08-02T04:42:31.138Z,7.93
2022-08-02T04:43:18.010Z,7.15
2022-08-02T04:44:04.840Z,6.47
2022-08-02T04:44:52.230Z,6.10
2022-08-02T04:45:38.997Z,6.57
2022-08-02T04:46:25.779Z,6.65
2022-08-02T04:47:12.731Z,6.30
2022-08-02T04:48:05.001Z,6.60
2022-08-02T04:48:52.581Z,7.30
2022-08-02T04:49:39.379Z,6.93
2022-08-02T04:50:26.129Z,7.20
2022-08-02T04:51:12.940Z,6.45
2022-08-02T04:52:01.188Z,6.45
2022-08-02T04:52:48.029Z,6.32
2022-08-02T04:53:34.808Z,5.80
2022-08-02T04:54:21.819Z,6.20
2022-08-02T04:55:09.020Z,6.45
2022-08-02T04:55:55.759Z,6.00
2022-08-02T04:56:42.933Z,6.68
2022-08-02T04:57:52.677Z,6.55
2022-08-02T04:58:40.971Z,5.85
2022-08-02T04:59:27.840Z,6.50
2022-08-02T05:00:15.104Z,9.63
2022-08-02T05:01:02.667Z,6.82
2022-08-02T05:01:49.789Z,7.85
2022-08-02T05:02:36.629Z,6.62
2022-08-02T05:03:23.409Z,6.57
2022-08-02T05:04:10.497Z,9.27
2022-08-02T05:04:57.305Z,6.87
2022-08-02T05:05:44.129Z,9.27
2022-08-02T05:06:31.281Z,8.63
2022-08-02T05:07:18.139Z,6.95
2022-08-02T05:08:05.048Z,6.62
2022-08-02T05:08:52.778Z,6.90
2022-08-02T05:09:40.186Z,7.03
2022-08-02T05:10:27.034Z,7.62
2022-08-02T05:11:13.842Z,7.10
2022-08-02T05:12:01.208Z,7.65
2022-08-02T05:12:49.850Z,7.07
2022-08-02T05:13:58.522Z,9.65
2022-08-02T05:14:43.478Z,10.68
2022-08-02T05:15:33.225Z,7.65
2022-08-02T05:16:20.329Z,8.27
2022-08-02T05:17:17.998Z,8.10
2022-08-02T05:18:04.939Z,7.32
2022-08-02T05:18:52.098Z,7.10
2022-08-02T05:19:38.830Z,7.22
2022-08-02T05:20:29.329Z,6.95
2022-08-02T05:21:16.069Z,7.70
2022-08-02T05:22:02.939Z,7.97
2022-08-02T05:22:49.748Z,7.47
2022-08-02T05:23:36.548Z,7.43
2022-08-02T05:24:23.389Z,7.50
2022-08-02T05:25:10.869Z,8.77
2022-08-02T05:25:57.668Z,10.63
2022-08-02T05:26:44.469Z,7.28
2022-08-02T05:27:33.456Z,7.12
2022-08-02T05:28:20.247Z,7.47
2022-08-02T05:29:07.050Z,7.95
2022-08-02T05:29:57.025Z,8.90
2022-08-02T05:30:43.998Z,8.07
2022-08-02T05:31:31.136Z,7.62
2022-08-02T05:32:18.882Z,7.65
2022-08-02T05:33:05.739Z,8.60
2022-08-02T05:33:52.899Z,8.00
2022-08-02T05:34:39.650Z,10.65
2022-08-02T05:35:26.687Z,8.18
2022-08-02T05:36:14.130Z,7.78
2022-08-02T05:37:02.658Z,7.57
2022-08-02T05:37:56.519Z,7.72
2022-08-02T05:38:43.248Z,7.47
2022-08-02T05:39:36.780Z,7.37
2022-08-02T05:40:54.565Z,7.53
2022-08-02T05:41:41.939Z,7.45
2022-08-02T05:42:32.589Z,7.80
2022-08-02T05:43:21.608Z,7.25
2022-08-02T05:44:08.378Z,7.72
2022-08-02T05:44:55.552Z,8.35
2022-08-02T05:45:42.638Z,9.30
2022-08-02T05:46:29.498Z,7.15
2022-08-02T05:47:16.269Z,7.45
2022-08-02T05:48:03.945Z,9.38
2022-08-02T05:48:50.937Z,8.35
2022-08-02T05:49:37.786Z,9.88
2022-08-02T05:50:24.761Z,8.15
2022-08-02T05:51:17.049Z,9.55
2022-08-02T05:52:10.250Z,13.60
2022-08-02T05:53:04.529Z,8.80
2022-08-02T05:53:59.193Z,8.13
2022-08-02T05:54:53.004Z,10.80
2022-08-02T05:55:48.870Z,9.77
2022-08-02T05:56:46.599Z,7.90
2022-08-02T05:57:43.282Z,10.65
2022-08-02T05:59:02.199Z,10.43
2022-08-02T06:00:06.705Z,7.57
2022-08-02T06:00:56.352Z,8.38
2022-08-02T06:01:44.151Z,8.00
2022-08-02T06:02:36.869Z,8.23
2022-08-02T06:03:32.603Z,8.82
2022-08-02T06:04:25.519Z,10.63
2022-08-02T06:05:19.327Z,8.82
2022-08-02T06:06:11.951Z,7.68
2022-08-02T06:07:02.819Z,8.38
2022-08-02T06:07:50.201Z,8.23
2022-08-02T06:08:48.112Z,9.63
2022-08-02T06:09:35.359Z,8.65
2022-08-02T06:10:22.628Z,9.02
2022-08-02T06:11:14.051Z,7.60
2022-08-02T06:12:03.074Z,10.07
2022-08-02T06:13:02.789Z,8.00
2022-08-02T06:13:50.170Z,7.93
2022-08-02T06:14:37.767Z,8.20
2022-08-02T06:15:24.499Z,5.75
2022-08-02T06:16:13.992Z,7.05
2022-08-02T06:17:04.680Z,7.80
2022-08-02T06:17:52.978Z,7.10
2022-08-02T06:18:42.020Z,8.65
2022-08-02T06:19:28.880Z,8.77
2022-08-02T06:20:16.109Z,8.38
2022-08-02T06:22:32.182Z,8.15
2022-08-02T06:22:35.044Z,8.93
2022-08-02T06:23:23.600Z,7.75
2022-08-02T06:24:10.839Z,8.18
2022-08-02T06:24:58.220Z,7.70
2022-08-02T06:25:51.104Z,7.07
2022-08-02T06:26:39.171Z,8.85
2022-08-02T06:27:29.219Z,8.45
2022-08-02T06:28:16.940Z,8.30
2022-08-02T06:29:05.259Z,7.95
2022-08-02T06:29:52.839Z,9.02
2022-08-02T06:30:39.763Z,7.40
2022-08-02T06:31:26.559Z,7.75
2022-08-02T06:32:13.708Z,8.10
2022-08-02T06:33:01.001Z,7.65
2022-08-02T06:33:47.808Z,7.15
2022-08-02T06:34:40.942Z,7.50
2022-08-02T06:35:47.270Z,7.43
2022-08-02T06:36:52.580Z,8.27
2022-08-02T06:37:39.409Z,6.87
2022-08-02T06:38:28.829Z,8.05
2022-08-02T06:39:23.578Z,6.57
2022-08-02T06:40:30.629Z,7.60
2022-08-02T06:41:18.331Z,8.18
2022-08-02T06:42:16.066Z,9.10
2022-08-02T06:43:12.402Z,7.90
2022-08-02T06:44:26.208Z,7.00
2022-08-02T06:45:10.479Z,7.20
2022-08-02T06:45:57.269Z,8.48
2022-08-02T06:47:11.314Z,9.73
2022-08-02T06:47:59.540Z,7.25
2022-08-02T06:48:46.481Z,7.53
2022-08-02T06:49:51.831Z,8.38
2022-08-02T06:50:42.156Z,6.90
2022-08-02T06:51:30.022Z,7.68
2022-08-02T06:52:19.087Z,6.68
2022-08-02T06:53:07.029Z,7.05
2022-08-02T06:53:53.823Z,6.95
2022-08-02T06:54:42.595Z,6.95
2022-08-02T06:55:29.828Z,7.25
2022-08-02T06:56:16.861Z,6.80
2022-08-02T06:57:03.578Z,8.73
2022-08-02T06:57:50.378Z,8.48
2022-08-02T06:58:40.679Z,7.43
2022-08-02T06:59:27.448Z,11.07
2022-08-02T07:00:14.760Z,10.20
2022-08-02T07:01:01.880Z,11.00
2022-08-02T07:01:50.175Z,8.93
2022-08-02T07:02:37.239Z,7.28
2022-08-02T07:03:25.742Z,7.50
2022-08-02T07:04:12.609Z,6.80
2022-08-02T07:04:59.393Z,7.78
2022-08-02T07:05:48.690Z,7.50
2022-08-02T07:06:36.058Z,7.00
2022-08-02T07:07:23.190Z,8.60
2022-08-02T07:08:09.988Z,7.37
2022-08-02T07:09:19.359Z,7.37
2022-08-02T07:10:03.988Z,6.97
2022-08-02T07:10:50.950Z,9.82
2022-08-02T07:11:37.777Z,9.07
2022-08-02T07:12:24.542Z,6.85
2022-08-02T07:13:11.360Z,7.50
2022-08-02T07:13:58.153Z,9.57
2022-08-02T07:14:44.940Z,6.93
2022-08-02T07:15:31.739Z,7.68
2022-08-02T07:16:18.458Z,8.88
2022-08-02T07:17:06.311Z,6.82
2022-08-02T07:17:53.342Z,7.93
2022-08-02T07:18:40.099Z,6.53
2022-08-02T07:19:37.756Z,7.30
2022-08-02T07:20:25.151Z,9.65
2022-08-02T07:21:11.921Z,7.28
2022-08-02T07:22:01.919Z,9.07
2022-08-02T07:22:48.768Z,7.72
2022-08-02T07:23:35.804Z,11.35
2022-08-02T07:24:22.500Z,6.82
2022-08-02T07:25:10.330Z,9.38
2022-08-02T07:26:02.411Z,7.10
2022-08-02T07:27:10.561Z,6.82
2022-08-02T07:27:57.860Z,7.43
2022-08-02T07:28:47.630Z,7.40
2022-08-02T07:29:45.201Z,7.15
2022-08-02T07:30:33.899Z,9.57
2022-08-02T07:31:20.848Z,8.93
2022-08-02T07:32:08.268Z,7.15
2022-08-02T07:32:55.289Z,7.72
2022-08-02T07:33:46.770Z,7.78
2022-08-02T07:34:33.869Z,8.07
2022-08-02T07:35:21.960Z,8.43
2022-08-02T07:36:09.629Z,7.85
2022-08-02T07:37:04.049Z,6.97
2022-08-02T07:38:01.843Z,6.85
2022-08-02T07:38:49.985Z,6.37
2022-08-02T07:39:36.812Z,8.00
2022-08-02T07:40:31.923Z,6.97
2022-08-02T07:41:18.679Z,6.72
2022-08-02T07:42:05.498Z,6.57
2022-08-02T07:43:02.385Z,6.35
2022-08-02T07:43:50.578Z,8.73
2022-08-02T07:44:37.429Z,7.85
2022-08-02T07:45:25.181Z,11.55
2022-08-02T07:46:12.071Z,7.82
2022-08-02T07:46:58.891Z,6.93
2022-08-02T07:47:46.410Z,6.72
2022-08-02T07:48:33.802Z,6.90
2022-08-02T07:49:20.535Z,6.50
2022-08-02T07:50:08.890Z,6.75
2022-08-02T07:50:55.639Z,7.28
2022-08-02T07:51:42.430Z,7.70
2022-08-02T07:52:32.699Z,8.65
2022-08-02T07:53:19.930Z,8.05
2022-08-02T07:54:26.728Z,8.57
2022-08-02T07:55:20.487Z,6.47
2022-08-02T07:56:07.319Z,6.55
2022-08-02T07:56:58.376Z,7.07
2022-08-02T07:57:47.083Z,6.57
2022-08-02T07:58:34.095Z,6.87
2022-08-02T07:59:21.930Z,7.00
2022-08-02T08:00:10.009Z,6.95
2022-08-02T08:00:56.741Z,6.78
2022-08-02T08:01:43.799Z,7.87
2022-08-02T08:02:32.967Z,6.85
2022-08-02T08:03:19.890Z,7.70
2022-08-02T08:04:06.691Z,7.28
2022-08-02T08:04:53.820Z,6.40
2022-08-02T08:05:41.133Z,11.27
2022-08-02T08:06:28.752Z,6.15
2022-08-02T08:07:16.303Z,7.07
2022-08-02T08:08:03.871Z,8.27
2022-08-02T08:08:50.730Z,7.18
2022-08-02T08:09:41.926Z,7.05
2022-08-02T08:10:28.820Z,6.20
2022-08-02T08:11:15.715Z,8.02
2022-08-02T08:12:02.488Z,7.93
2022-08-02T08:12:49.288Z,7.37
2022-08-02T08:13:36.029Z,6.57
2022-08-02T08:14:22.790Z,9.90
2022-08-02T08:15:10.422Z,8.05
2022-08-02T08:15:57.170Z,8.32
2022-08-02T08:16:44.427Z,6.03
2022-08-02T08:17:31.360Z,6.93
2022-08-02T08:18:18.141Z,7.68
2022-08-02T08:19:05.098Z,6.95
2022-08-02T08:19:53.022Z,6.68
2022-08-02T08:20:40.006Z,6.70
2022-08-02T08:21:27.741Z,6.78
2022-08-02T08:22:14.962Z,5.62
2022-08-02T08:23:01.917Z,6.32
2022-08-02T08:23:48.760Z,6.18
2022-08-02T08:24:35.542Z,6.60
2022-08-02T08:25:22.451Z,8.02
2022-08-02T08:26:13.927Z,6.53
2022-08-02T08:27:02.389Z,5.87
2022-08-02T08:27:52.890Z,5.85
2022-08-02T08:28:39.718Z,7.82
2022-08-02T08:29:26.809Z,8.80
2022-08-02T08:30:13.559Z,7.28
2022-08-02T08:31:00.579Z,7.57
2022-08-02T08:31:47.778Z,5.72
2022-08-02T08:32:34.630Z,6.00
2022-08-02T08:33:22.465Z,7.72
2022-08-02T08:34:09.328Z,6.82
2022-08-02T08:34:56.100Z,11.85
2022-08-02T08:35:42.869Z,6.22
2022-08-02T08:36:30.038Z,9.15
2022-08-02T08:37:18.543Z,6.28
2022-08-02T08:38:07.831Z,6.22
2022-08-02T08:38:54.998Z,6.87
2022-08-02T08:39:57.357Z,6.35
2022-08-02T08:40:45.447Z,6.00
2022-08-02T08:41:32.344Z,5.40
2022-08-02T08:42:19.459Z,5.45
2022-08-02T08:43:06.336Z,5.53
2022-08-02T08:43:53.542Z,6.78
2022-08-02T08:44:40.539Z,5.57
2022-08-02T08:45:27.270Z,7.03
2022-08-02T08:46:28.490Z,7.78
2022-08-02T08:47:15.390Z,5.55
2022-08-02T08:48:13.882Z,6.10
2022-08-02T08:49:06.717Z,5.78
2022-08-02T08:49:54.280Z,6.15
2022-08-02T08:50:48.239Z,5.37
2022-08-02T08:51:41.458Z,5.57
2022-08-02T08:52:28.530Z,7.43
2022-08-02T08:53:15.664Z,5.62
2022-08-02T08:54:04.131Z,5.40
2022-08-02T08:54:51.679Z,5.78
2022-08-02T08:55:38.529Z,6.75
2022-08-02T08:56:30.284Z,5.57
2022-08-02T08:57:18.306Z,5.65
2022-08-02T08:58:06.098Z,5.50
2022-08-02T08:58:52.950Z,5.35
2022-08-02T08:59:40.029Z,5.32
2022-08-02T09:00:27.841Z,5.20
2022-08-02T09:01:16.939Z,5.50
2022-08-02T09:02:17.956Z,6.73
2022-08-02T09:03:08.759Z,5.22
2022-08-02T09:03:55.579Z,6.40
2022-08-02T09:04:42.298Z,5.10
2022-08-02T09:05:42.745Z,5.10
2022-08-02T09:06:29.519Z,4.68
2022-08-02T09:07:16.387Z,4.78
2022-08-02T09:08:03.318Z,4.82
2022-08-02T09:08:50.215Z,6.70
2022-08-02T09:09:37.090Z,5.30
2022-08-02T09:10:43.360Z,4.90
2022-08-02T09:11:30.989Z,6.95
2022-08-02T09:12:22.568Z,5.10
2022-08-02T09:13:38.223Z,5.97
2022-08-02T09:14:32.939Z,7.43
2022-08-02T09:15:25.266Z,5.18
2022-08-02T09:16:14.424Z,5.72
2022-08-02T09:17:10.428Z,5.50
2022-08-02T09:17:57.265Z,5.78
2022-08-02T09:18:46.372Z,5.12
2022-08-02T09:19:34.200Z,6.05
2022-08-02T09:20:20.980Z,6.62
2022-08-02T09:21:09.219Z,6.07
2022-08-02T09:22:05.103Z,8.00
2022-08-02T09:23:07.789Z,5.10
2022-08-02T09:23:55.637Z,6.45
2022-08-02T09:24:49.159Z,5.75
2022-08-02T09:25:37.097Z,5.03
2022-08-02T09:26:24.569Z,5.75
2022-08-02T09:27:16.059Z,4.95
2022-08-02T09:28:04.958Z,6.03
2022-08-02T09:28:53.599Z,4.40
2022-08-02T09:30:05.942Z,5.53
2022-08-02T09:30:47.660Z,10.30
2022-08-02T09:31:34.500Z,4.47
2022-08-02T09:32:21.439Z,5.32
2022-08-02T09:33:09.347Z,4.95
2022-08-02T09:33:57.789Z,4.18
2022-08-02T09:34:54.659Z,4.78
2022-08-02T09:36:06.503Z,4.93
2022-08-02T09:36:48.711Z,4.60
2022-08-02T09:37:42.785Z,5.62
2022-08-02T09:38:32.559Z,4.80
2022-08-02T09:39:19.371Z,4.57
2022-08-02T09:40:10.273Z,7.78
2022-08-02T09:40:57.310Z,4.00
2022-08-02T09:41:45.589Z,4.45
2022-08-02T09:42:33.192Z,4.37
2022-08-02T09:43:21.379Z,4.60
2022-08-02T09:44:16.073Z,5.47
2022-08-02T09:45:03.728Z,5.45
2022-08-02T09:45:50.470Z,6.65
2022-08-02T09:46:42.091Z,4.70
2022-08-02T09:47:31.021Z,6.65
2022-08-02T09:48:18.128Z,4.50
2022-08-02T09:49:10.433Z,4.70
2022-08-02T09:49:58.696Z,4.62
2022-08-02T09:50:46.509Z,5.22
2022-08-02T09:51:38.591Z,4.50
2022-08-02T09:52:43.160Z,6.37
2022-08-02T09:53:31.394Z,5.50
2022-08-02T09:54:22.050Z,19.15
2022-08-02T09:55:09.612Z,8.00
2022-08-02T09:55:56.769Z,6.82
2022-08-02T09:56:46.849Z,4.40
2022-08-02T09:57:33.856Z,4.72
2022-08-02T09:58:21.209Z,5.12
2022-08-02T09:59:08.330Z,4.20
2022-08-02T09:59:56.530Z,5.62
2022-08-02T10:00:54.549Z,6.15
2022-08-02T10:01:50.640Z,7.18
2022-08-02T10:02:38.675Z,4.25
2022-08-02T10:03:35.165Z,4.05
2022-08-02T10:04:25.810Z,6.62
2022-08-02T10:05:12.788Z,4.18
2022-08-02T10:06:03.312Z,4.18
2022-08-02T10:06:52.450Z,4.25
2022-08-02T10:07:39.369Z,4.30
2022-08-02T10:08:26.967Z,4.62
2022-08-02T10:09:13.791Z,4.18
2022-08-02T10:10:00.850Z,4.57
2022-08-02T10:10:48.259Z,3.92
2022-08-02T10:11:35.801Z,4.18
2022-08-02T10:12:23.323Z,4.57
2022-08-02T10:13:10.970Z,8.00
2022-08-02T10:13:57.859Z,3.72
2022-08-02T10:14:45.819Z,6.75
2022-08-02T10:15:33.230Z,5.12
2022-08-02T10:16:23.878Z,5.80
2022-08-02T10:17:10.729Z,3.60
2022-08-02T10:17:57.592Z,3.67
2022-08-02T10:18:44.559Z,4.03
2022-08-02T10:20:01.328Z,4.22
2022-08-02T10:20:44.773Z,6.80
2022-08-02T10:21:37.590Z,4.03
2022-08-02T10:22:24.996Z,4.30
2022-08-02T10:23:14.639Z,4.03
2022-08-02T10:24:15.749Z,4.12
2022-08-02T10:25:04.598Z,5.15
2022-08-02T10:25:53.819Z,4.32
2022-08-02T10:26:43.941Z,4.68
2022-08-02T10:27:43.231Z,5.93
2022-08-02T10:28:38.699Z,3.85
2022-08-02T10:29:50.550Z,5.22
2022-08-02T10:30:40.029Z,6.35
2022-08-02T10:31:31.361Z,4.07
2022-08-02T10:32:28.178Z,4.55
2022-08-02T10:33:17.988Z,4.50
2022-08-02T10:34:08.869Z,3.85
2022-08-02T10:35:02.675Z,4.68
2022-08-02T10:36:07.981Z,4.20
2022-08-02T10:36:54.908Z,3.70
2022-08-02T10:37:41.872Z,5.32
2022-08-02T10:38:28.888Z,4.15
2022-08-02T10:39:16.204Z,4.35
2022-08-02T10:40:03.290Z,4.18
2022-08-02T10:40:54.669Z,3.70
2022-08-02T10:41:49.417Z,14.07
2022-08-02T10:42:45.213Z,7.55
2022-08-02T10:43:31.918Z,4.37
2022-08-02T10:44:24.446Z,3.70
2022-08-02T10:45:15.419Z,3.83
2022-08-02T10:47:24.490Z,5.20
2022-08-02T10:48:15.988Z,4.07
2022-08-02T10:49:18.464Z,3.62
2022-08-02T10:50:11.734Z,3.92
2022-08-02T10:51:03.517Z,4.25
2022-08-02T10:51:57.077Z,3.90
2022-08-02T10:52:44.008Z,3.42
2022-08-02T10:53:34.619Z,3.50
2022-08-02T10:55:22.063Z,5.03
2022-08-02T10:56:09.550Z,3.62
2022-08-02T10:56:57.671Z,3.25
2022-08-02T10:57:50.305Z,5.18
2022-08-02T10:59:28.358Z,3.50
2022-08-02T11:00:24.398Z,3.85
2022-08-02T11:01:38.961Z,3.95
2022-08-02T11:02:37.599Z,3.75
2022-08-02T11:03:39.710Z,3.37
2022-08-02T11:04:30.893Z,3.37
2022-08-02T11:05:19.888Z,5.45
2022-08-02T11:06:08.647Z,4.68
2022-08-02T11:07:15.568Z,3.30
2022-08-02T11:08:19.528Z,4.32
2022-08-02T11:09:34.188Z,3.83
2022-08-02T11:10:26.858Z,3.70
2022-08-02T11:11:13.629Z,4.93
2022-08-02T11:12:28.334Z,3.70
2022-08-02T11:13:17.777Z,3.50
2022-08-02T11:14:09.184Z,3.58